sensor_id;sensor_type;location;lat;lon;timestamp;P1;durP1;ratioP1;P2;durP2;ratioP2
17890;SDS011;9071;48.220;14.480;2023-03-29T00:02:41;14.77;;;6.87;;
17890;SDS011;9071;48.220;14.480;2023-03-29T00:07:48;18.77;;;7.90;;
17890;SDS011;9071;48.220;14.480;2023-03-29T00:12:53;18.37;;;8.73;;
17890;SDS011;9071;48.220;14.480;2023-03-29T00:17:55;16.97;;;7.80;;
17890;SDS011;9071;48.220;14.480;2023-03-29T00:22:58;12.03;;;6.47;;
17890;SDS011;9071;48.220;14.480;2023-03-29T00:28:01;12.80;;;6.30;;
17890;SDS011;9071;48.220;14.480;2023-03-29T00:33:03;14.97;;;6.80;;
17890;SDS011;9071;48.220;14.480;2023-03-29T00:38:06;8.43;;;5.20;;
17890;SDS011;9071;48.220;14.480;2023-03-29T00:43:09;11.33;;;4.70;;
17890;SDS011;9071;48.220;14.480;2023-03-29T00:48:13;6.13;;;4.30;;
17890;SDS011;9071;48.220;14.480;2023-03-29T00:53:20;6.50;;;4.33;;
17890;SDS011;9071;48.220;14.480;2023-03-29T00:58:27;7.07;;;4.27;;
17890;SDS011;9071;48.220;14.480;2023-03-29T01:03:32;8.07;;;4.53;;
17890;SDS011;9071;48.220;14.480;2023-03-29T01:08:42;8.33;;;4.10;;
17890;SDS011;9071;48.220;14.480;2023-03-29T01:13:49;7.20;;;4.47;;
17890;SDS011;9071;48.220;14.480;2023-03-29T01:18:57;13.70;;;6.20;;
17890;SDS011;9071;48.220;14.480;2023-03-29T01:29:28;15.70;;;6.90;;
17890;SDS011;9071;48.220;14.480;2023-03-29T01:34:35;22.60;;;10.03;;
17890;SDS011;9071;48.220;14.480;2023-03-29T01:39:43;20.33;;;7.97;;
17890;SDS011;9071;48.220;14.480;2023-03-29T01:44:50;16.63;;;8.07;;
17890;SDS011;9071;48.220;14.480;2023-03-29T01:50:01;17.23;;;8.03;;
17890;SDS011;9071;48.220;14.480;2023-03-29T01:55:12;17.70;;;9.60;;
17890;SDS011;9071;48.220;14.480;2023-03-29T02:00:21;19.17;;;8.40;;
17890;SDS011;9071;48.220;14.480;2023-03-29T02:05:27;16.77;;;8.10;;
17890;SDS011;9071;48.220;14.480;2023-03-29T02:10:30;19.13;;;8.77;;
17890;SDS011;9071;48.220;14.480;2023-03-29T02:15:35;18.87;;;8.30;;
17890;SDS011;9071;48.220;14.480;2023-03-29T02:20:39;16.53;;;7.50;;
17890;SDS011;9071;48.220;14.480;2023-03-29T02:25:46;13.73;;;6.77;;
17890;SDS011;9071;48.220;14.480;2023-03-29T02:30:52;13.40;;;6.83;;
17890;SDS011;9071;48.220;14.480;2023-03-29T02:35:59;14.77;;;6.40;;
17890;SDS011;9071;48.220;14.480;2023-03-29T02:41:03;10.10;;;6.10;;
17890;SDS011;9071;48.220;14.480;2023-03-29T02:46:08;8.90;;;6.23;;
17890;SDS011;9071;48.220;14.480;2023-03-29T02:51:13;11.07;;;6.33;;
17890;SDS011;9071;48.220;14.480;2023-03-29T02:56:18;12.57;;;6.20;;
17890;SDS011;9071;48.220;14.480;2023-03-29T03:01:22;9.47;;;6.13;;
17890;SDS011;9071;48.220;14.480;2023-03-29T03:06:25;11.07;;;5.57;;
17890;SDS011;9071;48.220;14.480;2023-03-29T03:11:28;10.70;;;5.53;;
17890;SDS011;9071;48.220;14.480;2023-03-29T03:16:32;9.23;;;5.27;;
17890;SDS011;9071;48.220;14.480;2023-03-29T03:21:34;9.80;;;5.60;;
17890;SDS011;9071;48.220;14.480;2023-03-29T03:26:37;8.80;;;5.20;;
17890;SDS011;9071;48.220;14.480;2023-03-29T03:31:40;9.20;;;5.40;;
17890;SDS011;9071;48.220;14.480;2023-03-29T03:36:43;11.33;;;5.30;;
17890;SDS011;9071;48.220;14.480;2023-03-29T03:41:46;9.60;;;5.13;;
17890;SDS011;9071;48.220;14.480;2023-03-29T03:46:49;11.97;;;6.67;;
17890;SDS011;9071;48.220;14.480;2023-03-29T03:51:51;10.27;;;4.83;;
17890;SDS011;9071;48.220;14.480;2023-03-29T03:56:53;14.13;;;5.43;;
17890;SDS011;9071;48.220;14.480;2023-03-29T04:01:57;14.17;;;7.10;;
17890;SDS011;9071;48.220;14.480;2023-03-29T04:06:59;15.37;;;7.40;;
17890;SDS011;9071;48.220;14.480;2023-03-29T04:12:03;12.40;;;6.40;;
17890;SDS011;9071;48.220;14.480;2023-03-29T04:17:06;12.57;;;5.50;;
17890;SDS011;9071;48.220;14.480;2023-03-29T04:22:08;11.23;;;5.67;;
17890;SDS011;9071;48.220;14.480;2023-03-29T04:27:10;9.97;;;5.07;;
17890;SDS011;9071;48.220;14.480;2023-03-29T04:32:14;11.53;;;4.60;;
17890;SDS011;9071;48.220;14.480;2023-03-29T04:37:16;10.57;;;4.50;;
17890;SDS011;9071;48.220;14.480;2023-03-29T04:42:21;7.73;;;3.87;;
17890;SDS011;9071;48.220;14.480;2023-03-29T04:47:24;11.77;;;5.43;;
17890;SDS011;9071;48.220;14.480;2023-03-29T04:52:28;10.43;;;4.40;;
17890;SDS011;9071;48.220;14.480;2023-03-29T04:57:32;12.00;;;4.93;;
17890;SDS011;9071;48.220;14.480;2023-03-29T05:02:35;11.77;;;4.73;;
17890;SDS011;9071;48.220;14.480;2023-03-29T05:07:37;9.50;;;5.37;;
17890;SDS011;9071;48.220;14.480;2023-03-29T05:12:40;8.17;;;4.93;;
17890;SDS011;9071;48.220;14.480;2023-03-29T05:17:43;11.30;;;6.27;;
17890;SDS011;9071;48.220;14.480;2023-03-29T05:22:46;20.27;;;7.10;;
17890;SDS011;9071;48.220;14.480;2023-03-29T05:27:48;16.47;;;8.27;;
17890;SDS011;9071;48.220;14.480;2023-03-29T05:32:52;13.30;;;6.27;;
17890;SDS011;9071;48.220;14.480;2023-03-29T05:37:54;8.23;;;4.57;;
17890;SDS011;9071;48.220;14.480;2023-03-29T05:42:57;6.60;;;4.40;;
17890;SDS011;9071;48.220;14.480;2023-03-29T05:48:03;16.57;;;6.53;;
17890;SDS011;9071;48.220;14.480;2023-03-29T05:53:05;13.67;;;7.73;;
17890;SDS011;9071;48.220;14.480;2023-03-29T05:58:07;13.50;;;5.77;;
17890;SDS011;9071;48.220;14.480;2023-03-29T06:03:13;13.37;;;6.37;;
17890;SDS011;9071;48.220;14.480;2023-03-29T06:08:17;10.10;;;6.10;;
17890;SDS011;9071;48.220;14.480;2023-03-29T06:13:20;14.13;;;7.07;;
17890;SDS011;9071;48.220;14.480;2023-03-29T06:18:24;11.10;;;6.27;;
17890;SDS011;9071;48.220;14.480;2023-03-29T06:23:26;13.23;;;6.00;;
17890;SDS011;9071;48.220;14.480;2023-03-29T06:28:29;12.67;;;5.87;;
17890;SDS011;9071;48.220;14.480;2023-03-29T06:33:33;13.03;;;6.30;;
17890;SDS011;9071;48.220;14.480;2023-03-29T06:38:36;13.13;;;6.67;;
17890;SDS011;9071;48.220;14.480;2023-03-29T06:43:39;10.00;;;6.30;;
17890;SDS011;9071;48.220;14.480;2023-03-29T06:48:43;10.97;;;5.60;;
17890;SDS011;9071;48.220;14.480;2023-03-29T06:53:47;9.60;;;5.50;;
17890;SDS011;9071;48.220;14.480;2023-03-29T06:58:49;11.27;;;5.70;;
17890;SDS011;9071;48.220;14.480;2023-03-29T07:03:53;11.43;;;5.80;;
17890;SDS011;9071;48.220;14.480;2023-03-29T07:08:56;8.23;;;4.90;;
17890;SDS011;9071;48.220;14.480;2023-03-29T07:14:00;10.63;;;5.27;;
17890;SDS011;9071;48.220;14.480;2023-03-29T07:19:04;15.30;;;6.17;;
17890;SDS011;9071;48.220;14.480;2023-03-29T07:24:08;9.73;;;5.67;;
17890;SDS011;9071;48.220;14.480;2023-03-29T07:29:10;9.73;;;5.80;;
17890;SDS011;9071;48.220;14.480;2023-03-29T07:34:13;11.73;;;5.80;;
17890;SDS011;9071;48.220;14.480;2023-03-29T07:39:16;13.23;;;5.47;;
17890;SDS011;9071;48.220;14.480;2023-03-29T07:44:21;14.37;;;5.47;;
17890;SDS011;9071;48.220;14.480;2023-03-29T07:49:25;10.87;;;4.63;;
17890;SDS011;9071;48.220;14.480;2023-03-29T07:54:28;6.67;;;3.93;;
17890;SDS011;9071;48.220;14.480;2023-03-29T07:59:31;6.80;;;3.80;;
17890;SDS011;9071;48.220;14.480;2023-03-29T08:04:35;6.83;;;3.80;;
17890;SDS011;9071;48.220;14.480;2023-03-29T08:09:37;12.53;;;4.23;;
17890;SDS011;9071;48.220;14.480;2023-03-29T08:14:39;9.17;;;4.00;;
17890;SDS011;9071;48.220;14.480;2023-03-29T08:19:43;8.87;;;4.03;;
17890;SDS011;9071;48.220;14.480;2023-03-29T08:24:45;5.77;;;3.70;;
17890;SDS011;9071;48.220;14.480;2023-03-29T08:29:47;10.20;;;4.00;;
17890;SDS011;9071;48.220;14.480;2023-03-29T08:34:51;5.80;;;3.23;;
17890;SDS011;9071;48.220;14.480;2023-03-29T08:39:54;8.90;;;3.20;;
17890;SDS011;9071;48.220;14.480;2023-03-29T08:45:00;5.00;;;3.60;;
17890;SDS011;9071;48.220;14.480;2023-03-29T08:50:10;10.97;;;3.37;;
17890;SDS011;9071;48.220;14.480;2023-03-29T08:55:15;6.50;;;3.10;;
17890;SDS011;9071;48.220;14.480;2023-03-29T09:00:27;5.07;;;3.00;;
17890;SDS011;9071;48.220;14.480;2023-03-29T09:05:36;4.70;;;3.20;;
17890;SDS011;9071;48.220;14.480;2023-03-29T09:10:45;8.73;;;3.43;;
17890;SDS011;9071;48.220;14.480;2023-03-29T09:15:50;5.47;;;3.47;;
17890;SDS011;9071;48.220;14.480;2023-03-29T09:20:57;7.70;;;3.50;;
17890;SDS011;9071;48.220;14.480;2023-03-29T09:26:04;6.83;;;3.77;;
17890;SDS011;9071;48.220;14.480;2023-03-29T09:31:14;16.03;;;4.50;;
17890;SDS011;9071;48.220;14.480;2023-03-29T09:36:24;5.40;;;3.50;;
17890;SDS011;9071;48.220;14.480;2023-03-29T09:41:36;8.97;;;3.83;;
17890;SDS011;9071;48.220;14.480;2023-03-29T09:46:42;7.77;;;3.80;;
17890;SDS011;9071;48.220;14.480;2023-03-29T09:51:48;6.57;;;4.00;;
17890;SDS011;9071;48.220;14.480;2023-03-29T09:56:51;7.47;;;4.10;;
17890;SDS011;9071;48.220;14.480;2023-03-29T10:01:54;7.73;;;4.33;;
17890;SDS011;9071;48.220;14.480;2023-03-29T10:07:08;8.27;;;4.53;;
17890;SDS011;9071;48.220;14.480;2023-03-29T10:12:17;14.83;;;4.37;;
17890;SDS011;9071;48.220;14.480;2023-03-29T10:17:21;6.53;;;3.67;;
17890;SDS011;9071;48.220;14.480;2023-03-29T10:22:27;5.17;;;3.03;;
17890;SDS011;9071;48.220;14.480;2023-03-29T10:27:33;6.00;;;3.20;;
17890;SDS011;9071;48.220;14.480;2023-03-29T10:32:36;4.53;;;2.70;;
17890;SDS011;9071;48.220;14.480;2023-03-29T10:37:40;3.87;;;2.70;;
17890;SDS011;9071;48.220;14.480;2023-03-29T10:42:45;5.77;;;2.80;;
17890;SDS011;9071;48.220;14.480;2023-03-29T10:47:49;4.40;;;2.80;;
17890;SDS011;9071;48.220;14.480;2023-03-29T10:52:52;5.03;;;2.80;;
17890;SDS011;9071;48.220;14.480;2023-03-29T10:57:56;3.30;;;2.30;;
17890;SDS011;9071;48.220;14.480;2023-03-29T11:08:51;4.53;;;2.43;;
17890;SDS011;9071;48.220;14.480;2023-03-29T11:13:58;2.73;;;2.23;;
17890;SDS011;9071;48.220;14.480;2023-03-29T11:19:13;5.43;;;2.70;;
17890;SDS011;9071;48.220;14.480;2023-03-29T11:24:31;4.33;;;2.57;;
17890;SDS011;9071;48.220;14.480;2023-03-29T11:29:48;4.33;;;2.37;;
17890;SDS011;9071;48.220;14.480;2023-03-29T11:35:01;3.30;;;2.30;;
17890;SDS011;9071;48.220;14.480;2023-03-29T11:40:20;5.70;;;2.33;;
17890;SDS011;9071;48.220;14.480;2023-03-29T11:45:33;3.50;;;2.10;;
17890;SDS011;9071;48.220;14.480;2023-03-29T11:50:41;3.07;;;1.87;;
17890;SDS011;9071;48.220;14.480;2023-03-29T11:55:49;2.40;;;2.20;;
17890;SDS011;9071;48.220;14.480;2023-03-29T12:00:53;5.10;;;2.40;;
17890;SDS011;9071;48.220;14.480;2023-03-29T12:06:00;6.97;;;2.40;;
17890;SDS011;9071;48.220;14.480;2023-03-29T12:11:10;7.03;;;3.17;;
17890;SDS011;9071;48.220;14.480;2023-03-29T12:16:20;2.63;;;1.90;;
17890;SDS011;9071;48.220;14.480;2023-03-29T12:21:26;4.73;;;2.53;;
17890;SDS011;9071;48.220;14.480;2023-03-29T12:26:43;4.60;;;2.30;;
17890;SDS011;9071;48.220;14.480;2023-03-29T12:32:01;3.63;;;2.53;;
17890;SDS011;9071;48.220;14.480;2023-03-29T12:37:29;2.80;;;2.30;;
17890;SDS011;9071;48.220;14.480;2023-03-29T12:42:46;6.17;;;2.80;;
17890;SDS011;9071;48.220;14.480;2023-03-29T12:47:52;6.30;;;2.70;;
17890;SDS011;9071;48.220;14.480;2023-03-29T12:53:02;3.83;;;2.40;;
17890;SDS011;9071;48.220;14.480;2023-03-29T12:58:08;4.43;;;3.00;;
17890;SDS011;9071;48.220;14.480;2023-03-29T13:03:27;4.17;;;2.90;;
17890;SDS011;9071;48.220;14.480;2023-03-29T13:08:32;4.67;;;2.70;;
17890;SDS011;9071;48.220;14.480;2023-03-29T13:13:37;5.53;;;2.90;;
17890;SDS011;9071;48.220;14.480;2023-03-29T13:18:50;3.63;;;2.93;;
17890;SDS011;9071;48.220;14.480;2023-03-29T13:24:00;3.67;;;2.30;;
17890;SDS011;9071;48.220;14.480;2023-03-29T13:29:20;5.33;;;2.97;;
17890;SDS011;9071;48.220;14.480;2023-03-29T13:34:35;3.90;;;2.57;;
17890;SDS011;9071;48.220;14.480;2023-03-29T13:39:47;5.30;;;2.57;;
17890;SDS011;9071;48.220;14.480;2023-03-29T13:44:52;4.03;;;2.30;;
17890;SDS011;9071;48.220;14.480;2023-03-29T13:50:05;3.10;;;2.70;;
17890;SDS011;9071;48.220;14.480;2023-03-29T13:55:16;5.67;;;3.10;;
17890;SDS011;9071;48.220;14.480;2023-03-29T14:00:24;5.63;;;3.07;;
17890;SDS011;9071;48.220;14.480;2023-03-29T14:05:32;3.37;;;2.03;;
17890;SDS011;9071;48.220;14.480;2023-03-29T14:10:38;4.93;;;2.40;;
17890;SDS011;9071;48.220;14.480;2023-03-29T14:15:44;5.63;;;2.50;;
17890;SDS011;9071;48.220;14.480;2023-03-29T14:20:50;5.13;;;2.60;;
17890;SDS011;9071;48.220;14.480;2023-03-29T14:25:54;5.97;;;2.83;;
17890;SDS011;9071;48.220;14.480;2023-03-29T14:31:15;4.33;;;2.90;;
17890;SDS011;9071;48.220;14.480;2023-03-29T14:36:18;4.87;;;2.97;;
17890;SDS011;9071;48.220;14.480;2023-03-29T14:41:20;3.93;;;2.50;;
17890;SDS011;9071;48.220;14.480;2023-03-29T14:46:24;4.23;;;2.67;;
17890;SDS011;9071;48.220;14.480;2023-03-29T14:51:27;2.67;;;2.17;;
17890;SDS011;9071;48.220;14.480;2023-03-29T14:56:30;7.43;;;3.30;;
17890;SDS011;9071;48.220;14.480;2023-03-29T15:01:35;4.70;;;3.00;;
17890;SDS011;9071;48.220;14.480;2023-03-29T15:06:44;4.73;;;2.60;;
17890;SDS011;9071;48.220;14.480;2023-03-29T15:11:50;4.30;;;2.50;;
17890;SDS011;9071;48.220;14.480;2023-03-29T15:16:57;3.77;;;3.03;;
17890;SDS011;9071;48.220;14.480;2023-03-29T15:22:03;4.23;;;3.03;;
17890;SDS011;9071;48.220;14.480;2023-03-29T15:27:11;5.00;;;3.30;;
17890;SDS011;9071;48.220;14.480;2023-03-29T15:32:22;16.03;;;5.60;;
17890;SDS011;9071;48.220;14.480;2023-03-29T15:37:32;4.43;;;3.00;;
17890;SDS011;9071;48.220;14.480;2023-03-29T15:42:35;3.27;;;2.60;;
17890;SDS011;9071;48.220;14.480;2023-03-29T15:47:39;4.20;;;3.20;;
17890;SDS011;9071;48.220;14.480;2023-03-29T15:52:41;5.90;;;3.00;;
17890;SDS011;9071;48.220;14.480;2023-03-29T15:57:43;5.77;;;3.13;;
17890;SDS011;9071;48.220;14.480;2023-03-29T16:02:50;6.97;;;4.57;;
17890;SDS011;9071;48.220;14.480;2023-03-29T16:07:52;7.63;;;4.73;;
17890;SDS011;9071;48.220;14.480;2023-03-29T16:12:54;7.93;;;4.10;;
17890;SDS011;9071;48.220;14.480;2023-03-29T16:17:57;6.37;;;3.50;;
17890;SDS011;9071;48.220;14.480;2023-03-29T16:22:59;5.90;;;3.73;;
17890;SDS011;9071;48.220;14.480;2023-03-29T16:28:07;5.13;;;3.97;;
17890;SDS011;9071;48.220;14.480;2023-03-29T16:33:13;6.97;;;4.03;;
17890;SDS011;9071;48.220;14.480;2023-03-29T16:38:16;6.40;;;4.10;;
17890;SDS011;9071;48.220;14.480;2023-03-29T16:43:18;6.37;;;4.23;;
17890;SDS011;9071;48.220;14.480;2023-03-29T16:48:21;7.47;;;4.43;;
17890;SDS011;9071;48.220;14.480;2023-03-29T16:53:23;6.50;;;5.20;;
17890;SDS011;9071;48.220;14.480;2023-03-29T16:58:26;5.37;;;4.00;;
17890;SDS011;9071;48.220;14.480;2023-03-29T17:03:29;9.57;;;6.03;;
17890;SDS011;9071;48.220;14.480;2023-03-29T17:08:32;5.13;;;3.53;;
17890;SDS011;9071;48.220;14.480;2023-03-29T17:13:34;6.27;;;4.17;;
17890;SDS011;9071;48.220;14.480;2023-03-29T17:18:38;8.60;;;5.83;;
17890;SDS011;9071;48.220;14.480;2023-03-29T17:23:40;8.87;;;5.77;;
17890;SDS011;9071;48.220;14.480;2023-03-29T17:28:42;30.57;;;15.37;;
17890;SDS011;9071;48.220;14.480;2023-03-29T17:33:46;31.97;;;17.27;;
17890;SDS011;9071;48.220;14.480;2023-03-29T17:38:51;6.73;;;5.23;;
17890;SDS011;9071;48.220;14.480;2023-03-29T17:43:53;9.23;;;5.70;;
17890;SDS011;9071;48.220;14.480;2023-03-29T17:48:57;9.03;;;5.63;;
17890;SDS011;9071;48.220;14.480;2023-03-29T17:53:59;7.47;;;5.13;;
17890;SDS011;9071;48.220;14.480;2023-03-29T17:59:01;11.87;;;6.10;;
17890;SDS011;9071;48.220;14.480;2023-03-29T18:04:05;12.43;;;6.60;;
17890;SDS011;9071;48.220;14.480;2023-03-29T18:09:07;8.97;;;6.10;;
17890;SDS011;9071;48.220;14.480;2023-03-29T18:14:09;12.00;;;7.43;;
17890;SDS011;9071;48.220;14.480;2023-03-29T18:19:12;8.80;;;5.93;;
17890;SDS011;9071;48.220;14.480;2023-03-29T18:24:14;8.57;;;6.00;;
17890;SDS011;9071;48.220;14.480;2023-03-29T18:29:17;18.67;;;10.73;;
17890;SDS011;9071;48.220;14.480;2023-03-29T18:34:20;11.77;;;6.70;;
17890;SDS011;9071;48.220;14.480;2023-03-29T18:39:22;19.50;;;9.87;;
17890;SDS011;9071;48.220;14.480;2023-03-29T18:44:24;16.63;;;9.67;;
17890;SDS011;9071;48.220;14.480;2023-03-29T18:49:28;23.77;;;13.77;;
17890;SDS011;9071;48.220;14.480;2023-03-29T18:54:31;19.33;;;10.90;;
17890;SDS011;9071;48.220;14.480;2023-03-29T18:59:33;24.93;;;12.73;;
17890;SDS011;9071;48.220;14.480;2023-03-29T19:04:37;70.60;;;26.90;;
17890;SDS011;9071;48.220;14.480;2023-03-29T19:09:39;29.87;;;15.77;;
17890;SDS011;9071;48.220;14.480;2023-03-29T19:14:41;14.37;;;8.03;;
17890;SDS011;9071;48.220;14.480;2023-03-29T19:19:45;14.17;;;8.90;;
17890;SDS011;9071;48.220;14.480;2023-03-29T19:24:47;12.80;;;8.17;;
17890;SDS011;9071;48.220;14.480;2023-03-29T19:29:49;16.77;;;10.90;;
17890;SDS011;9071;48.220;14.480;2023-03-29T19:34:53;33.57;;;19.63;;
17890;SDS011;9071;48.220;14.480;2023-03-29T19:39:55;20.30;;;11.80;;
17890;SDS011;9071;48.220;14.480;2023-03-29T19:44:57;15.83;;;9.50;;
17890;SDS011;9071;48.220;14.480;2023-03-29T19:50:00;18.47;;;11.27;;
17890;SDS011;9071;48.220;14.480;2023-03-29T19:55:04;17.33;;;10.73;;
17890;SDS011;9071;48.220;14.480;2023-03-29T20:00:08;22.33;;;12.70;;
17890;SDS011;9071;48.220;14.480;2023-03-29T20:05:13;19.07;;;12.27;;
17890;SDS011;9071;48.220;14.480;2023-03-29T20:10:15;23.07;;;12.93;;
17890;SDS011;9071;48.220;14.480;2023-03-29T20:15:18;21.20;;;11.93;;
17890;SDS011;9071;48.220;14.480;2023-03-29T20:20:21;20.00;;;13.93;;
17890;SDS011;9071;48.220;14.480;2023-03-29T20:25:24;23.43;;;13.17;;
17890;SDS011;9071;48.220;14.480;2023-03-29T20:30:26;23.07;;;12.67;;
17890;SDS011;9071;48.220;14.480;2023-03-29T20:35:29;23.47;;;13.83;;
17890;SDS011;9071;48.220;14.480;2023-03-29T20:40:33;29.83;;;14.87;;
17890;SDS011;9071;48.220;14.480;2023-03-29T20:45:36;21.93;;;14.03;;
17890;SDS011;9071;48.220;14.480;2023-03-29T20:50:44;20.43;;;11.90;;
17890;SDS011;9071;48.220;14.480;2023-03-29T20:55:47;18.63;;;12.67;;
17890;SDS011;9071;48.220;14.480;2023-03-29T21:00:49;16.77;;;11.37;;
17890;SDS011;9071;48.220;14.480;2023-03-29T21:05:53;22.40;;;11.80;;
17890;SDS011;9071;48.220;14.480;2023-03-29T21:10:57;18.67;;;13.60;;
17890;SDS011;9071;48.220;14.480;2023-03-29T21:16:00;19.20;;;11.43;;
17890;SDS011;9071;48.220;14.480;2023-03-29T21:21:05;21.23;;;12.30;;
17890;SDS011;9071;48.220;14.480;2023-03-29T21:26:08;17.90;;;12.33;;
17890;SDS011;9071;48.220;14.480;2023-03-29T21:31:10;15.43;;;11.53;;
17890;SDS011;9071;48.220;14.480;2023-03-29T21:36:13;16.80;;;12.23;;
17890;SDS011;9071;48.220;14.480;2023-03-29T21:41:15;23.10;;;13.37;;
17890;SDS011;9071;48.220;14.480;2023-03-29T21:46:17;19.07;;;12.30;;
17890;SDS011;9071;48.220;14.480;2023-03-29T21:51:21;21.53;;;14.67;;
17890;SDS011;9071;48.220;14.480;2023-03-29T21:56:23;23.37;;;14.73;;
17890;SDS011;9071;48.220;14.480;2023-03-29T22:01:25;28.07;;;16.40;;
17890;SDS011;9071;48.220;14.480;2023-03-29T22:06:29;25.53;;;15.87;;
17890;SDS011;9071;48.220;14.480;2023-03-29T22:11:31;21.57;;;13.60;;
17890;SDS011;9071;48.220;14.480;2023-03-29T22:16:33;24.20;;;13.00;;
17890;SDS011;9071;48.220;14.480;2023-03-29T22:21:38;15.50;;;10.97;;
17890;SDS011;9071;48.220;14.480;2023-03-29T22:26:40;16.60;;;9.73;;
17890;SDS011;9071;48.220;14.480;2023-03-29T22:31:43;15.37;;;10.03;;
17890;SDS011;9071;48.220;14.480;2023-03-29T22:36:47;14.50;;;9.70;;
17890;SDS011;9071;48.220;14.480;2023-03-29T22:41:49;14.20;;;9.43;;
17890;SDS011;9071;48.220;14.480;2023-03-29T22:46:51;12.90;;;9.43;;
17890;SDS011;9071;48.220;14.480;2023-03-29T22:51:55;12.87;;;9.90;;
17890;SDS011;9071;48.220;14.480;2023-03-29T22:56:57;13.27;;;9.70;;
17890;SDS011;9071;48.220;14.480;2023-03-29T23:01:59;16.90;;;11.37;;
17890;SDS011;9071;48.220;14.480;2023-03-29T23:07:02;18.43;;;13.77;;
17890;SDS011;9071;48.220;14.480;2023-03-29T23:12:05;19.00;;;14.80;;
17890;SDS011;9071;48.220;14.480;2023-03-29T23:17:08;21.77;;;14.30;;
17890;SDS011;9071;48.220;14.480;2023-03-29T23:22:12;16.63;;;12.20;;
17890;SDS011;9071;48.220;14.480;2023-03-29T23:27:15;22.17;;;13.53;;
17890;SDS011;9071;48.220;14.480;2023-03-29T23:32:17;22.43;;;13.40;;
17890;SDS011;9071;48.220;14.480;2023-03-29T23:37:21;18.70;;;12.60;;
17890;SDS011;9071;48.220;14.480;2023-03-29T23:42:24;16.97;;;11.33;;
17890;SDS011;9071;48.220;14.480;2023-03-29T23:47:26;17.37;;;11.57;;
17890;SDS011;9071;48.220;14.480;2023-03-29T23:52:29;17.03;;;11.57;;
17890;SDS011;9071;48.220;14.480;2023-03-29T23:57:32;19.63;;;12.67;;
